Time;durP1;ratioP1;P1;durP2;ratioP2;P2;SDS_P1;SDS_P2;PMS_P1;PMS_P2;Temp;Humidity;BMP_temperature;BMP_pressure;BME280_temperature;BME280_humidity;BME280_pressure;Samples;Min_cycle;Max_cycle;Signal;HPM_P1;HPM_P2
2022/06/02 00:00:22;;;;;;;0.10;0.10;;;10.30;99.90;;;;;;5026019;28;20053;-71
2022/06/02 00:03:18;;;;;;;0.10;0.10;;;10.20;99.90;;;;;;5018560;28;20049;-70
2022/06/02 00:06:11;;;;;;;0.10;0.10;;;10.20;99.90;;;;;;5021467;28;20042;-70
2022/06/02 00:08:36;;;;;;;0.25;0.25;;;10.30;99.90;;;;;;5013741;28;20046;-70
2022/06/02 00:11:37;;;;;;;0.10;0.10;;;10.30;99.90;;;;;;5008019;28;20445;-70
2022/06/02 00:14:18;;;;;;;0.40;0.40;;;10.20;99.90;;;;;;5013007;28;20489;-70
2022/06/02 00:16:50;;;;;;;0.25;0.25;;;10.20;99.90;;;;;;5028568;28;20092;-71
2022/06/02 00:19:39;;;;;;;0.20;0.20;;;10.10;99.90;;;;;;5020793;28;20042;-71
2022/06/02 00:22:23;;;;;;;6.03;0.65;;;10.00;99.90;;;;;;5021596;28;20045;-71
2022/06/02 00:24:53;;;;;;;0.10;0.10;;;10.00;99.90;;;;;;5016404;28;20552;-71
2022/06/02 00:27:42;;;;;;;0.10;0.10;;;10.00;99.90;;;;;;5013290;28;20128;-70
2022/06/02 00:30:33;;;;;;;0.35;0.35;;;10.00;99.90;;;;;;5011010;28;20105;-70
2022/06/02 00:33:07;;;;;;;4.47;1.55;;;9.90;99.90;;;;;;5024815;28;20049;-70
2022/06/02 00:35:51;;;;;;;3.63;0.65;;;9.90;99.90;;;;;;5021694;28;20042;-70
2022/06/02 00:38:34;;;;;;;0.10;0.10;;;9.90;99.90;;;;;;5017751;28;20045;-70
2022/06/02 00:41:24;;;;;;;0.13;0.13;;;9.90;99.90;;;;;;5018473;28;20076;-70
2022/06/02 00:43:50;;;;;;;0.10;0.10;;;9.80;99.90;;;;;;5027073;28;20049;-70
2022/06/02 00:46:40;;;;;;;0.10;0.10;;;9.80;99.90;;;;;;5017578;28;20063;-70
2022/06/02 00:49:06;;;;;;;0.17;0.17;;;9.80;99.90;;;;;;5027718;28;20467;-70
2022/06/02 00:52:10;;;;;;;0.10;0.10;;;9.80;99.90;;;;;;5021006;28;20041;-70
2022/06/02 00:57:53;;;;;;;0.10;0.10;;;9.70;99.90;;;;;;5006922;28;19932;-71
2022/06/02 01:00:24;;;;;;;0.10;0.10;;;9.60;99.90;;;;;;5011388;28;20041;-71
2022/06/02 01:03:13;;;;;;;0.10;0.10;;;9.60;99.90;;;;;;5024285;28;20033;-71
2022/06/02 01:06:12;;;;;;;0.20;0.20;;;9.60;99.90;;;;;;5028246;28;20064;-70
2022/06/02 01:08:56;;;;;;;0.10;0.10;;;9.60;99.90;;;;;;5006617;28;20453;-70
2022/06/02 01:12:05;;;;;;;0.20;0.20;;;9.60;99.90;;;;;;5022769;28;20050;-70
2022/06/02 01:14:47;;;;;;;0.10;0.10;;;9.60;99.90;;;;;;5029740;28;20137;-70
2022/06/02 01:17:21;;;;;;;0.10;0.10;;;9.60;99.90;;;;;;5009904;28;20049;-70
2022/06/02 01:19:50;;;;;;;0.10;0.10;;;9.60;99.90;;;;;;5018236;28;20041;-70
2022/06/02 01:22:43;;;;;;;0.10;0.10;;;9.60;99.90;;;;;;5019134;28;20463;-70
2022/06/02 01:25:17;;;;;;;0.10;0.10;;;9.50;99.90;;;;;;5008819;28;20050;-70
2022/06/02 01:28:04;;;;;;;0.05;0.05;;;9.40;99.90;;;;;;5026720;28;20168;-70
2022/06/02 01:30:45;;;;;;;0.10;0.10;;;9.40;99.90;;;;;;5019227;28;20513;-70
2022/06/02 01:33:25;;;;;;;0.43;0.43;;;9.30;99.90;;;;;;5015094;28;20056;-70
2022/06/02 01:36:10;;;;;;;0.10;0.10;;;9.30;99.90;;;;;;5024088;28;20045;-70
2022/06/02 01:38:42;;;;;;;0.10;0.10;;;9.30;99.90;;;;;;5015859;28;20133;-70
2022/06/02 01:41:48;;;;;;;0.20;0.20;;;9.30;99.90;;;;;;5014209;28;20054;-70
2022/06/02 01:44:19;;;;;;;0.20;0.20;;;9.30;99.90;;;;;;5016076;28;20129;-70
2022/06/02 01:46:46;;;;;;;0.35;0.35;;;9.20;99.90;;;;;;5016358;28;20160;-70
2022/06/02 01:49:45;;;;;;;0.68;0.57;;;9.20;99.90;;;;;;5025120;28;20541;-70
2022/06/02 01:52:30;;;;;;;0.17;0.17;;;9.20;99.90;;;;;;5019618;28;20049;-70
2022/06/02 01:55:18;;;;;;;0.10;0.10;;;9.20;99.90;;;;;;5027686;28;20041;-70
2022/06/02 01:57:49;;;;;;;1.00;0.52;;;9.10;99.90;;;;;;5018068;28;20516;-70
2022/06/02 02:00:21;;;;;;;0.25;0.25;;;9.10;99.90;;;;;;5021499;28;20066;-70
2022/06/02 02:03:01;;;;;;;0.13;0.13;;;9.10;99.90;;;;;;5017315;28;20072;-70
2022/06/02 02:05:55;;;;;;;0.20;0.20;;;9.00;99.90;;;;;;5027533;28;20056;-70
2022/06/02 02:08:52;;;;;;;0.35;0.35;;;9.10;99.90;;;;;;5016818;28;20405;-70
2022/06/02 02:11:36;;;;;;;0.30;0.30;;;9.00;99.90;;;;;;5018389;28;20045;-70
2022/06/02 02:14:39;;;;;;;0.10;0.10;;;9.00;99.90;;;;;;5030264;28;20037;-70
2022/06/02 02:17:46;;;;;;;0.10;0.10;;;9.20;99.90;;;;;;5017959;28;20085;-70
2022/06/02 02:20:27;;;;;;;0.40;0.40;;;9.20;99.90;;;;;;5020363;28;20107;-70
2022/06/02 02:23:30;;;;;;;0.63;0.55;;;9.20;99.90;;;;;;5014014;28;20053;-70
2022/06/02 02:26:06;;;;;;;0.40;0.40;;;9.20;99.90;;;;;;5013503;28;20125;-70
2022/06/02 02:28:50;;;;;;;0.10;0.10;;;9.20;99.90;;;;;;5025551;28;20099;-70
2022/06/02 02:31:33;;;;;;;0.20;0.20;;;9.00;99.90;;;;;;5025882;28;20049;-70
2022/06/02 02:34:13;;;;;;;0.20;0.20;;;9.00;99.90;;;;;;5015091;28;20050;-70
2022/06/02 02:37:01;;;;;;;0.00;0.00;;;8.90;99.90;;;;;;5021954;28;20045;-70
2022/06/02 02:39:46;;;;;;;0.10;0.10;;;8.80;99.90;;;;;;5027785;28;20053;-70
2022/06/02 02:42:23;;;;;;;0.10;0.10;;;8.70;99.90;;;;;;5020742;28;20077;-70
2022/06/02 02:45:23;;;;;;;0.17;0.17;;;8.70;99.90;;;;;;5015979;28;20033;-70
2022/06/02 02:48:15;;;;;;;0.10;0.10;;;8.80;99.90;;;;;;5013815;28;20128;-70
2022/06/02 02:50:53;;;;;;;0.10;0.10;;;8.80;99.90;;;;;;5013117;28;20052;-70
2022/06/02 02:53:33;;;;;;;0.20;0.20;;;8.90;99.90;;;;;;5027879;28;20046;-70
2022/06/02 02:56:41;;;;;;;0.65;0.50;;;8.80;99.90;;;;;;5027397;28;20390;-70
2022/06/02 02:59:19;;;;;;;0.10;0.10;;;8.90;99.90;;;;;;5021077;28;20174;-70
2022/06/02 03:02:05;;;;;;;0.10;0.10;;;8.90;99.90;;;;;;5021222;28;20046;-70
2022/06/02 03:04:47;;;;;;;0.32;0.32;;;8.90;99.90;;;;;;5012827;28;20088;-70
2022/06/02 03:07:13;;;;;;;1.08;1.08;;;8.90;99.90;;;;;;5025761;28;20041;-70
2022/06/02 03:10:02;;;;;;;0.40;0.40;;;8.90;99.90;;;;;;5027047;28;20413;-70
2022/06/02 03:12:45;;;;;;;0.10;0.10;;;8.80;99.90;;;;;;5027713;28;20053;-70
2022/06/02 03:15:26;;;;;;;0.10;0.10;;;8.80;99.90;;;;;;5016982;28;20069;-70
2022/06/02 03:18:23;;;;;;;0.10;0.10;;;8.90;99.90;;;;;;5022387;28;20061;-70
2022/06/02 03:20:58;;;;;;;0.10;0.10;;;8.90;99.90;;;;;;5009117;28;20104;-70
2022/06/02 03:23:44;;;;;;;0.10;0.10;;;8.80;99.90;;;;;;5026629;28;20115;-70
2022/06/02 03:26:23;;;;;;;0.10;0.10;;;8.80;99.90;;;;;;5025020;28;20057;-70
2022/06/02 03:29:17;;;;;;;0.10;0.10;;;8.80;99.90;;;;;;5029469;28;20046;-70
2022/06/02 03:32:05;;;;;;;1.00;0.90;;;8.80;99.90;;;;;;5018395;28;20042;-70
2022/06/02 03:34:50;;;;;;;0.43;0.43;;;8.80;99.90;;;;;;5010357;28;20050;-70
2022/06/02 03:37:43;;;;;;;0.10;0.10;;;8.80;99.90;;;;;;5028289;28;20489;-70
2022/06/02 03:40:26;;;;;;;0.20;0.20;;;8.80;99.90;;;;;;5020957;28;20057;-70
2022/06/02 03:43:07;;;;;;;0.10;0.10;;;8.80;99.90;;;;;;5015634;28;20045;-70
2022/06/02 03:45:44;;;;;;;0.10;0.10;;;8.80;99.90;;;;;;5015036;28;20331;-70
2022/06/02 03:48:30;;;;;;;0.10;0.10;;;8.90;99.90;;;;;;5025693;28;20051;-70
2022/06/02 03:51:20;;;;;;;0.20;0.20;;;8.90;99.90;;;;;;5027445;28;20056;-69
2022/06/02 03:54:23;;;;;;;0.47;0.47;;;8.90;99.90;;;;;;5011049;28;20042;-70
2022/06/02 03:57:12;;;;;;;1.25;0.80;;;8.90;99.90;;;;;;5027297;28;20065;-70
2022/06/02 03:59:49;;;;;;;0.10;0.10;;;8.90;99.90;;;;;;5010215;28;20359;-70
2022/06/02 04:02:23;;;;;;;0.10;0.10;;;8.90;99.90;;;;;;5015152;28;20076;-70
2022/06/02 04:05:16;;;;;;;0.43;0.43;;;8.90;99.90;;;;;;5018425;28;20056;-70
2022/06/02 04:08:08;;;;;;;0.10;0.10;;;8.80;99.90;;;;;;5012965;28;20037;-70
2022/06/02 04:10:37;;;;;;;0.13;0.13;;;9.00;99.90;;;;;;5007443;28;20053;-70
2022/06/02 04:13:37;;;;;;;0.10;0.10;;;9.10;99.90;;;;;;5023952;28;20508;-70
2022/06/02 04:16:34;;;;;;;0.10;0.10;;;9.10;99.90;;;;;;5027887;28;20476;-70
2022/06/02 04:22:38;;;;;;;0.17;0.17;;;9.20;99.90;;;;;;5041548;28;20041;-70
2022/06/02 04:25:25;;;;;;;0.00;0.00;;;9.30;99.90;;;;;;5025482;28;20041;-70
2022/06/02 04:27:55;;;;;;;0.32;0.32;;;9.30;99.90;;;;;;5013046;28;20045;-69
2022/06/02 04:30:26;;;;;;;0.10;0.10;;;9.40;99.90;;;;;;5026083;28;20064;-70
2022/06/02 04:33:08;;;;;;;0.00;0.00;;;9.40;99.90;;;;;;5025067;28;20131;-70
2022/06/02 04:35:59;;;;;;;0.17;0.17;;;9.40;99.90;;;;;;5012116;28;20111;-69
2022/06/02 04:38:48;;;;;;;0.05;0.05;;;9.50;99.90;;;;;;5011748;28;20052;-70
2022/06/02 04:41:53;;;;;;;0.10;0.10;;;9.60;99.90;;;;;;5014894;28;20112;-70
2022/06/02 04:44:32;;;;;;;0.60;0.60;;;9.60;99.90;;;;;;5014971;28;20505;-69
2022/06/02 04:47:12;;;;;;;0.10;0.10;;;9.70;99.90;;;;;;5026708;28;20049;-69
2022/06/02 04:50:08;;;;;;;0.10;0.10;;;9.80;99.90;;;;;;5027107;28;20378;-69
2022/06/02 04:53:01;;;;;;;0.10;0.10;;;9.90;99.90;;;;;;5011580;28;20042;-70
2022/06/02 04:55:58;;;;;;;0.10;0.10;;;9.90;99.90;;;;;;5024330;28;20057;-69
2022/06/02 04:58:27;;;;;;;0.10;0.10;;;10.10;99.90;;;;;;5021504;28;20048;-69
2022/06/02 05:01:08;;;;;;;0.00;0.00;;;10.20;99.90;;;;;;5011330;28;20072;-70
2022/06/02 05:03:52;;;;;;;0.25;0.25;;;10.30;99.90;;;;;;5026988;28;20091;-70
2022/06/02 05:06:29;;;;;;;0.20;0.20;;;10.40;99.90;;;;;;5025812;28;20041;-70
2022/06/02 05:09:01;;;;;;;0.00;0.00;;;10.50;99.90;;;;;;5020727;28;20460;-70
2022/06/02 05:11:51;;;;;;;0.10;0.10;;;10.50;99.90;;;;;;5019423;28;20697;-70
2022/06/02 05:14:36;;;;;;;0.10;0.10;;;10.60;99.90;;;;;;5008181;28;20282;-70
2022/06/02 05:17:53;;;;;;;0.10;0.10;;;10.70;99.90;;;;;;5020124;28;20432;-70
2022/06/02 05:20:37;;;;;;;0.10;0.10;;;10.80;99.90;;;;;;5023130;28;20057;-69
2022/06/02 05:23:30;;;;;;;0.00;0.00;;;10.90;99.90;;;;;;5028386;28;20527;-69
2022/06/02 05:26:34;;;;;;;0.75;0.75;;;10.90;99.90;;;;;;5024161;28;20176;-70
2022/06/02 05:29:22;;;;;;;0.10;0.10;;;11.10;99.90;;;;;;5024190;28;20103;-70
2022/06/02 05:32:21;;;;;;;0.10;0.10;;;11.10;99.90;;;;;;5022235;28;20045;-70
2022/06/02 05:34:49;;;;;;;0.10;0.10;;;11.20;99.90;;;;;;5019605;28;20052;-70
2022/06/02 05:37:38;;;;;;;0.10;0.10;;;11.30;99.90;;;;;;5028427;28;20049;-70
2022/06/02 05:40:30;;;;;;;0.17;0.17;;;11.30;99.90;;;;;;5021151;28;20049;-70
2022/06/02 05:42:55;;;;;;;0.20;0.20;;;11.40;99.90;;;;;;5018873;28;20058;-69
2022/06/02 05:45:39;;;;;;;0.10;0.10;;;11.50;99.90;;;;;;5025633;28;20116;-69
2022/06/02 05:48:22;;;;;;;0.10;0.10;;;11.50;99.90;;;;;;5012866;28;20060;-70
2022/06/02 05:50:58;;;;;;;0.10;0.10;;;11.60;99.90;;;;;;5026869;28;20048;-69
2022/06/02 05:53:36;;;;;;;0.10;0.10;;;11.70;99.90;;;;;;5025650;28;20053;-69
2022/06/02 05:56:17;;;;;;;0.03;0.03;;;11.80;99.90;;;;;;5028752;28;20140;-69
2022/06/02 05:59:03;;;;;;;0.52;0.52;;;11.80;99.90;;;;;;5026933;28;20049;-70
2022/06/02 06:01:42;;;;;;;0.00;0.00;;;12.00;99.90;;;;;;5011634;28;20041;-70
2022/06/02 06:04:50;;;;;;;0.10;0.10;;;12.10;99.90;;;;;;5026694;28;20052;-70
2022/06/02 06:07:31;;;;;;;1.08;0.65;;;12.20;99.90;;;;;;5028875;28;20056;-70
2022/06/02 06:10:09;;;;;;;0.03;0.03;;;12.20;99.90;;;;;;5027162;28;20493;-69
2022/06/02 06:13:08;;;;;;;0.90;0.88;;;12.30;99.90;;;;;;5011481;28;20064;-70
2022/06/02 06:15:56;;;;;;;1.35;1.10;;;12.30;99.90;;;;;;5013366;28;20112;-70
2022/06/02 06:18:28;;;;;;;0.00;0.00;;;12.40;99.90;;;;;;5025474;28;20029;-70
2022/06/02 06:21:17;;;;;;;0.00;0.00;;;12.40;99.90;;;;;;5014904;28;20478;-69
2022/06/02 06:23:57;;;;;;;0.10;0.10;;;12.50;99.90;;;;;;5029823;28;20049;-70
2022/06/02 06:26:29;;;;;;;0.10;0.10;;;12.50;99.90;;;;;;5013958;28;20038;-70
2022/06/02 06:29:27;;;;;;;0.10;0.10;;;12.50;99.90;;;;;;5027715;28;20049;-70
2022/06/02 06:32:02;;;;;;;0.10;0.10;;;12.60;99.90;;;;;;5030585;28;20084;-70
2022/06/02 06:34:45;;;;;;;0.10;0.10;;;12.70;99.90;;;;;;5016173;28;20042;-69
2022/06/02 06:37:19;;;;;;;0.10;0.10;;;12.70;99.90;;;;;;5011383;28;20124;-70
2022/06/02 06:39:55;;;;;;;0.00;0.00;;;12.70;99.90;;;;;;5008150;28;20058;-70
2022/06/02 06:42:45;;;;;;;0.10;0.10;;;12.70;99.90;;;;;;5010651;28;20049;-69
2022/06/02 06:45:11;;;;;;;0.00;0.00;;;12.70;99.90;;;;;;5010063;28;20472;-70
2022/06/02 06:47:42;;;;;;;0.25;0.25;;;12.80;99.90;;;;;;5009350;28;20041;-69
2022/06/02 06:50:23;;;;;;;0.30;0.30;;;12.90;99.90;;;;;;5010606;28;20045;-70
2022/06/02 06:53:18;;;;;;;0.40;0.40;;;12.90;99.90;;;;;;5009220;28;20525;-70
2022/06/02 06:55:51;;;;;;;0.10;0.10;;;13.00;99.90;;;;;;5011068;28;20080;-70
2022/06/02 06:58:25;;;;;;;0.00;0.00;;;13.00;99.90;;;;;;5010590;28;20136;-69
2022/06/02 07:01:03;;;;;;;0.08;0.08;;;13.00;99.90;;;;;;5010063;28;20100;-70
2022/06/02 07:03:59;;;;;;;0.00;0.00;;;13.10;99.90;;;;;;5024859;28;20064;-69
2022/06/02 07:06:44;;;;;;;0.00;0.00;;;13.10;99.90;;;;;;5027361;28;20160;-70
2022/06/02 07:09:21;;;;;;;0.13;0.13;;;13.10;99.90;;;;;;5025397;28;20046;-70
2022/06/02 07:15:05;;;;;;;0.38;0.38;;;13.20;99.90;;;;;;5029172;28;20077;-69
2022/06/02 07:17:45;;;;;;;0.00;0.00;;;13.20;99.90;;;;;;5014221;28;20107;-69
2022/06/02 07:20:50;;;;;;;0.20;0.20;;;13.30;99.90;;;;;;5006487;28;20615;-70
2022/06/02 07:23:22;;;;;;;;;;;13.40;99.90;;;;;;5024495;28;20067;-70
2022/06/02 07:25:53;;;;;;;0.00;0.00;;;13.50;99.90;;;;;;5028796;28;20429;-70
2022/06/02 07:28:32;;;;;;;0.45;0.45;;;13.70;99.90;;;;;;5014624;28;20044;-70
2022/06/02 07:31:01;;;;;;;0.10;0.10;;;13.60;99.90;;;;;;5007911;28;20057;-70
2022/06/02 07:34:21;;;;;;;0.10;0.10;;;13.50;99.90;;;;;;5017396;28;20555;-69
2022/06/02 07:36:47;;;;;;;0.10;0.10;;;13.50;99.90;;;;;;5006187;28;20046;-70
2022/06/02 07:39:40;;;;;;;0.20;0.20;;;13.70;99.90;;;;;;5004431;28;20453;-70
2022/06/02 07:42:24;;;;;;;0.20;0.20;;;13.70;99.90;;;;;;5007718;28;20049;-69
2022/06/02 07:45:17;;;;;;;0.05;0.05;;;13.70;99.90;;;;;;5016845;28;20049;-69
2022/06/02 07:48:02;;;;;;;0.00;0.00;;;13.70;99.90;;;;;;5011533;28;20046;-69
2022/06/02 07:50:39;;;;;;;0.10;0.10;;;13.80;99.90;;;;;;5007739;28;20058;-69
2022/06/02 07:53:12;;;;;;;0.10;0.10;;;13.90;99.90;;;;;;5009083;28;20044;-69
2022/06/02 07:56:18;;;;;;;0.10;0.10;;;13.90;99.90;;;;;;5010639;28;20514;-69
2022/06/02 07:58:43;;;;;;;0.20;0.20;;;14.00;99.90;;;;;;5008390;28;20061;-69
2022/06/02 08:01:18;;;;;;;0.00;0.00;;;14.10;99.90;;;;;;5008413;28;20050;-69
2022/06/02 08:03:53;;;;;;;0.00;0.00;;;14.20;99.90;;;;;;5010218;28;20518;-70
2022/06/02 08:06:46;;;;;;;0.10;0.10;;;14.40;99.90;;;;;;5013120;28;20128;-70
2022/06/02 08:09:36;;;;;;;0.10;0.10;;;14.30;99.90;;;;;;5007561;28;20045;-69
2022/06/02 08:12:02;;;;;;;0.03;0.03;;;14.20;99.90;;;;;;5009324;28;20038;-70
2022/06/02 08:14:51;;;;;;;0.20;0.20;;;14.30;99.90;;;;;;5013819;28;20056;-70
2022/06/02 08:17:28;;;;;;;0.08;0.08;;;14.50;99.90;;;;;;5021345;28;20042;-69
2022/06/02 08:20:12;;;;;;;0.10;0.10;;;14.50;99.90;;;;;;5015593;28;20140;-70
2022/06/02 08:23:04;;;;;;;0.10;0.10;;;14.50;99.90;;;;;;5027296;28;20045;-70
2022/06/02 08:25:42;;;;;;;0.22;0.22;;;14.50;99.90;;;;;;5008572;28;20135;-70
2022/06/02 08:28:25;;;;;;;0.10;0.10;;;14.40;99.90;;;;;;5007645;28;20042;-70
2022/06/02 08:31:46;;;;;;;1.25;0.32;;;14.40;99.90;;;;;;5006574;28;20061;-70
2022/06/02 08:34:30;;;;;;;0.10;0.10;;;14.40;99.90;;;;;;4989213;28;20060;-70
2022/06/02 08:37:08;;;;;;;0.00;0.00;;;14.40;99.90;;;;;;5017035;28;20442;-70
2022/06/02 08:39:52;;;;;;;0.22;0.22;;;14.40;99.90;;;;;;5020298;28;20045;-69
2022/06/02 08:42:45;;;;;;;0.60;0.60;;;14.50;99.90;;;;;;5022768;28;20417;-69
2022/06/02 08:45:18;;;;;;;0.15;0.15;;;14.70;99.90;;;;;;5026775;28;20045;-69
2022/06/02 08:48:10;;;;;;;0.10;0.10;;;14.90;99.90;;;;;;5013235;28;20045;-69
2022/06/02 08:51:08;;;;;;;0.10;0.10;;;15.10;99.90;;;;;;5008213;28;20062;-70
2022/06/02 08:54:11;;;;;;;0.20;0.20;;;15.20;99.90;;;;;;5007739;28;20056;-68
2022/06/02 08:56:56;;;;;;;0.00;0.00;;;15.10;99.90;;;;;;5007761;28;20085;-69
2022/06/02 08:59:38;;;;;;;0.10;0.10;;;15.00;99.90;;;;;;5006995;28;20088;-69
2022/06/02 09:02:54;;;;;;;0.32;0.32;;;15.10;99.90;;;;;;5026398;28;20485;-69
2022/06/02 09:05:58;;;;;;;0.00;0.00;;;15.30;99.90;;;;;;5020200;28;20495;-69
2022/06/02 09:08:43;;;;;;;;;;;15.40;99.90;;;;;;5023927;28;20140;-69
2022/06/02 09:11:37;;;;;;;0.00;0.00;;;15.40;99.90;;;;;;5008991;28;20274;-69
2022/06/02 09:14:21;;;;;;;;;;;15.30;99.90;;;;;;5018886;28;20066;-70
2022/06/02 09:17:14;;;;;;;0.10;0.10;;;15.30;99.90;;;;;;5016312;28;19922;-69
2022/06/02 09:19:40;;;;;;;0.00;0.00;;;15.20;99.90;;;;;;5024249;28;20121;-69
2022/06/02 09:22:14;;;;;;;0.10;0.10;;;15.10;99.90;;;;;;5024229;28;20164;-69
2022/06/02 09:25:08;;;;;;;0.10;0.10;;;15.20;99.90;;;;;;5026330;28;20073;-70
2022/06/02 09:28:22;;;;;;;0.05;0.05;;;15.40;99.90;;;;;;5025437;28;20524;-69
2022/06/02 09:30:55;;;;;;;0.00;0.00;;;15.60;99.90;;;;;;5007853;28;20449;-70
2022/06/02 09:33:43;;;;;;;0.10;0.10;;;15.50;99.90;;;;;;5020310;28;20066;-70
2022/06/02 09:36:27;;;;;;;2.25;0.55;;;15.50;99.90;;;;;;5039167;28;20477;-69
2022/06/02 09:39:31;;;;;;;0.10;0.10;;;15.80;99.90;;;;;;5012561;28;20096;-69
2022/06/02 09:42:05;;;;;;;0.10;0.10;;;16.00;99.90;;;;;;5007558;28;20079;-69
2022/06/02 09:44:43;;;;;;;0.10;0.10;;;15.90;99.90;;;;;;5020266;28;20038;-69
2022/06/02 09:47:42;;;;;;;0.10;0.10;;;15.90;99.90;;;;;;5015027;28;20046;-69
2022/06/02 09:50:23;;;;;;;0.10;0.10;;;15.90;99.90;;;;;;5021830;28;20541;-69
2022/06/02 09:53:15;;;;;;;0.10;0.10;;;15.80;99.90;;;;;;5025740;28;20038;-69
2022/06/02 09:56:19;;;;;;;0.00;0.00;;;15.60;99.90;;;;;;5020128;28;20066;-70
2022/06/02 09:59:17;;;;;;;0.10;0.10;;;15.70;99.90;;;;;;5026289;28;20049;-69
2022/06/02 10:02:10;;;;;;;0.00;0.00;;;16.20;99.90;;;;;;5006963;28;20125;-69
2022/06/02 10:05:09;;;;;;;0.00;0.00;;;16.30;99.90;;;;;;5008005;28;20081;-69
2022/06/02 10:07:51;;;;;;;0.20;0.20;;;16.20;99.90;;;;;;5016250;28;20034;-70
2022/06/02 10:10:39;;;;;;;0.08;0.08;;;16.20;99.90;;;;;;5021532;28;20046;-72
2022/06/02 10:13:33;;;;;;;0.00;0.00;;;16.10;99.90;;;;;;5028211;28;20052;-70
2022/06/02 10:16:36;;;;;;;0.17;0.17;;;16.30;99.90;;;;;;5021465;28;20057;-70
2022/06/02 10:19:34;;;;;;;0.10;0.10;;;16.60;99.90;;;;;;5025058;28;20049;-71
2022/06/02 10:22:28;;;;;;;0.45;0.45;;;16.50;99.90;;;;;;5030167;28;20049;-69
2022/06/02 10:25:31;;;;;;;0.00;0.00;;;16.50;99.90;;;;;;5023262;28;20046;-69
2022/06/02 10:28:33;;;;;;;0.10;0.10;;;16.50;99.90;;;;;;5010437;28;20050;-69
2022/06/02 10:31:16;;;;;;;0.00;0.00;;;16.50;99.90;;;;;;5008124;28;20050;-70
2022/06/02 10:33:54;;;;;;;0.10;0.10;;;16.70;99.90;;;;;;5020088;28;20053;-69
2022/06/02 10:37:18;;;;;;;1.08;1.00;;;16.80;99.90;;;;;;5030438;28;20110;-69
2022/06/02 10:40:26;;;;;;;0.00;0.00;;;16.80;99.90;;;;;;4988385;28;21434;-69
2022/06/02 10:43:15;;;;;;;0.20;0.20;;;16.70;99.90;;;;;;5011245;28;20103;-70
2022/06/02 10:46:19;;;;;;;0.00;0.00;;;16.80;99.90;;;;;;5009782;28;20049;-69
2022/06/02 10:49:21;;;;;;;0.33;0.33;;;16.70;99.90;;;;;;5011441;28;20488;-70
2022/06/02 10:52:25;;;;;;;0.10;0.10;;;16.90;99.90;;;;;;5008829;28;20425;-70
2022/06/02 10:55:19;;;;;;;0.10;0.10;;;17.30;99.90;;;;;;5017861;28;20092;-69
2022/06/02 10:58:22;;;;;;;0.10;0.10;;;17.30;99.90;;;;;;5028416;28;20059;-69
2022/06/02 11:01:07;;;;;;;0.00;0.00;;;17.60;99.90;;;;;;5011000;28;20506;-69
2022/06/02 11:03:59;;;;;;;0.00;0.00;;;17.50;99.90;;;;;;5017406;28;20037;-69
2022/06/02 11:06:45;;;;;;;0.10;0.10;;;17.30;99.90;;;;;;5029342;28;20069;-70
2022/06/02 11:10:01;;;;;;;0.10;0.10;;;17.20;99.90;;;;;;5011044;28;20129;-70
2022/06/02 11:12:51;;;;;;;0.10;0.10;;;17.10;99.90;;;;;;5017052;28;20054;-70
2022/06/02 11:15:44;;;;;;;0.10;0.10;;;17.10;99.90;;;;;;5022119;28;20048;-70
2022/06/02 11:18:41;;;;;;;0.10;0.10;;;16.70;99.90;;;;;;5012308;28;20073;-70
2022/06/02 11:21:37;;;;;;;0.20;0.20;;;16.80;99.90;;;;;;5019650;28;20088;-70
2022/06/02 11:24:27;;;;;;;0.00;0.00;;;16.90;99.90;;;;;;5022245;28;20132;-70
2022/06/02 11:27:20;;;;;;;0.00;0.00;;;16.90;99.90;;;;;;5012076;28;20814;-70
2022/06/02 11:30:08;;;;;;;0.23;0.23;;;16.90;99.90;;;;;;5010121;28;20058;-71
2022/06/02 11:32:59;;;;;;;0.15;0.15;;;17.20;99.90;;;;;;5014559;28;20044;-70
2022/06/02 11:35:52;;;;;;;6.25;2.15;;;17.50;99.90;;;;;;5029627;28;20071;-70
2022/06/02 11:38:21;;;;;;;0.10;0.10;;;17.30;99.90;;;;;;5015661;28;20046;-70
2022/06/02 11:40:52;;;;;;;0.00;0.00;;;17.30;99.90;;;;;;5018840;28;20052;-70
2022/06/02 11:43:24;;;;;;;0.30;0.30;;;17.10;99.90;;;;;;5018897;28;20046;-71
2022/06/02 11:46:14;;;;;;;0.00;0.00;;;16.90;99.90;;;;;;5019259;28;20132;-70
2022/06/02 11:48:48;;;;;;;0.10;0.10;;;16.90;99.90;;;;;;5008191;28;20100;-70
2022/06/02 11:51:39;;;;;;;0.25;0.25;;;17.60;99.90;;;;;;5008226;28;20057;-71
2022/06/02 11:54:18;;;;;;;0.10;0.10;;;18.20;99.90;;;;;;5026297;28;20041;-70
2022/06/02 11:57:08;;;;;;;0.15;0.15;;;18.00;99.90;;;;;;5023612;28;20107;-70
2022/06/02 11:59:42;;;;;;;0.20;0.20;;;18.00;99.90;;;;;;5026007;28;20398;-70
2022/06/02 12:02:44;;;;;;;0.00;0.00;;;18.20;99.90;;;;;;5020016;28;20138;-70
2022/06/02 12:05:41;;;;;;;0.22;0.17;;;18.00;99.90;;;;;;5023065;28;20432;-70
2022/06/02 12:08:26;;;;;;;0.00;0.00;;;17.80;99.90;;;;;;5027374;28;20579;-70
2022/06/02 12:11:10;;;;;;;0.00;0.00;;;17.90;99.90;;;;;;5027095;28;20116;-70
2022/06/02 12:13:55;;;;;;;0.00;0.00;;;18.70;99.90;;;;;;5028371;28;20715;-70
2022/06/02 12:17:32;;;;;;;0.00;0.00;;;19.30;99.90;;;;;;5026849;28;20100;-70
2022/06/02 12:20:18;;;;;;;0.10;0.10;;;19.20;99.90;;;;;;4932714;28;20067;-70
2022/06/02 12:22:52;;;;;;;1.55;0.30;;;18.60;99.90;;;;;;5008460;28;20049;-69
2022/06/02 12:25:23;;;;;;;0.10;0.10;;;18.70;99.90;;;;;;5020133;28;20049;-70
2022/06/02 12:28:05;;;;;;;0.08;0.08;;;19.40;99.90;;;;;;5013734;28;20042;-70
2022/06/02 12:31:08;;;;;;;0.20;0.20;;;19.00;99.90;;;;;;5018043;28;20045;-69
2022/06/02 12:33:52;;;;;;;0.00;0.00;;;18.70;99.90;;;;;;5007557;28;20111;-70
2022/06/02 12:36:44;;;;;;;0.10;0.10;;;19.00;99.90;;;;;;5007625;28;20073;-69
2022/06/02 12:39:40;;;;;;;0.10;0.10;;;19.10;99.90;;;;;;5008819;28;20061;-70
2022/06/02 12:42:36;;;;;;;0.08;0.08;;;18.90;99.90;;;;;;5012946;28;20046;-70
2022/06/02 12:45:22;;;;;;;0.00;0.00;;;19.70;99.90;;;;;;5020262;28;20504;-70
2022/06/02 12:48:22;;;;;;;0.00;0.00;;;20.00;99.90;;;;;;5028895;28;20509;-70
2022/06/02 12:51:02;;;;;;;0.20;0.13;;;20.50;99.90;;;;;;5023688;28;20485;-71
2022/06/02 12:53:28;;;;;;;0.03;0.03;;;20.60;99.90;;;;;;5025444;28;20041;-70
2022/06/02 12:56:28;;;;;;;0.00;0.00;;;20.90;99.90;;;;;;5027887;28;20426;-70
2022/06/02 12:59:24;;;;;;;0.00;0.00;;;20.80;99.90;;;;;;5009123;28;20129;-70
2022/06/02 13:01:59;;;;;;;0.08;0.08;;;20.10;99.90;;;;;;5019198;28;20091;-70
2022/06/02 13:05:12;;;;;;;0.03;0.03;;;19.90;99.90;;;;;;5022993;28;20042;-70
2022/06/02 13:07:57;;;;;;;0.00;0.00;;;19.40;99.90;;;;;;5006670;28;20430;-70
2022/06/02 13:10:47;;;;;;;0.17;0.17;;;19.00;99.90;;;;;;5014409;28;20463;-70
2022/06/02 13:13:47;;;;;;;0.00;0.00;;;19.30;99.90;;;;;;5023178;28;20049;-70
2022/06/02 13:16:42;;;;;;;0.35;0.35;;;19.50;99.90;;;;;;5008715;28;20057;-70
2022/06/02 13:19:31;;;;;;;0.10;0.10;;;19.20;99.90;;;;;;5007580;28;20386;-70
2022/06/02 13:22:22;;;;;;;0.00;0.00;;;20.20;99.90;;;;;;5008713;28;20121;-70
2022/06/02 13:25:23;;;;;;;0.00;0.00;;;20.70;99.90;;;;;;5008059;28;20050;-70
2022/06/02 13:28:09;;;;;;;0.00;0.00;;;21.20;99.90;;;;;;5012303;28;20092;-69
2022/06/02 13:30:52;;;;;;;0.00;0.00;;;21.70;99.90;;;;;;5027121;28;20060;-70
2022/06/02 13:34:14;;;;;;;0.00;0.00;;;21.00;99.90;;;;;;5025227;28;20374;-69
2022/06/02 13:37:14;;;;;;;0.08;0.08;;;20.60;99.90;;;;;;5012097;28;20061;-69
2022/06/02 13:39:55;;;;;;;0.00;0.00;;;20.20;99.90;;;;;;5007652;28;20078;-69
2022/06/02 13:43:13;;;;;;;0.08;0.08;;;19.80;99.90;;;;;;5012445;28;20081;-70
2022/06/02 13:46:16;;;;;;;0.00;0.00;;;19.40;99.90;;;;;;5025214;28;20501;-70
2022/06/02 13:48:51;;;;;;;0.90;0.55;;;19.00;99.90;;;;;;5021051;28;20041;-70
2022/06/02 13:51:28;;;;;;;0.10;0.10;;;18.80;99.90;;;;;;5018401;28;20398;-69
2022/06/02 14:00:28;;;;;;;6.57;1.13;;;19.60;99.90;;;;;;5022590;28;20058;-70
2022/06/02 14:03:34;;;;;;;0.00;0.00;;;19.90;99.90;;;;;;5012006;28;20080;-69
2022/06/02 14:06:10;;;;;;;0.00;0.00;;;19.50;99.90;;;;;;5011834;28;20045;-69
2022/06/02 14:08:57;;;;;;;0.00;0.00;;;19.40;99.90;;;;;;5010047;28;20081;-69
2022/06/02 14:11:32;;;;;;;0.00;0.00;;;19.30;99.90;;;;;;5025657;28;20053;-70
2022/06/02 14:14:21;;;;;;;0.05;0.05;;;19.70;99.90;;;;;;5015098;28;20139;-69
2022/06/02 14:16:50;;;;;;;0.00;0.00;;;19.90;99.90;;;;;;5010169;28;20133;-68
2022/06/02 14:19:27;;;;;;;0.80;0.30;;;20.30;99.90;;;;;;5019522;28;20049;-68
2022/06/02 14:21:55;;;;;;;0.10;0.10;;;19.60;99.90;;;;;;5023866;28;20475;-68
2022/06/02 14:24:58;;;;;;;1.15;1.05;;;19.60;99.90;;;;;;5012083;28;20054;-68
2022/06/02 14:27:36;;;;;;;0.17;0.17;;;19.80;99.90;;;;;;5020711;28;20046;-68
2022/06/02 14:30:16;;;;;;;0.00;0.00;;;20.10;99.90;;;;;;5022314;28;20052;-69
2022/06/02 14:32:50;;;;;;;0.10;0.10;;;20.40;99.90;;;;;;5014843;28;20418;-68
2022/06/02 14:35:49;;;;;;;0.32;0.32;;;20.80;99.90;;;;;;5010446;28;20442;-68
2022/06/02 14:38:23;;;;;;;0.00;0.00;;;21.00;99.90;;;;;;5010552;28;20103;-69
2022/06/02 14:40:59;;;;;;;0.65;0.65;;;21.10;99.90;;;;;;5013727;28;20052;-68
2022/06/02 14:44:04;;;;;;;0.08;0.08;;;21.00;99.90;;;;;;5010157;28;20057;-69
2022/06/02 14:46:54;;;;;;;0.10;0.10;;;20.50;99.90;;;;;;5010924;28;20060;-69